Capitol Logistics 2031

Operating for MET



KMCI
Kansas City International Airport
Kansas City, Missouri
KLAX
Los Angeles International Airport
Los Angeles, California

Route Details

Aircraft Information
Primary: Boeing 767-300BDSF
Backup: Airbus A300-600F
Route Data
Distance: 1184nm
Duration: 3h 29m
Recm'd Route: WL5 SLN KD45W ALS TBC JASSE Q90 DNERO ANJLL4
Origin Wx: KMCI 020653Z 02004KT 6SM HZ BKN065 19/15 A3016 RMK AO2 SLP204 T01890150
Dest. Wx: KLAX 020653Z 19005KT 10SM CLR 18/15 A3002 RMK AO2 SLP163 T01780150
Notes: OPF METRO AIR VIRTUAL